sensor_id;sensor_type;location;lat;lon;timestamp;temperature;humidity
10296;DHT22;5193;51.032;6.356;2023-04-01T00:02:06;9.60;99.90
10296;DHT22;5193;51.032;6.356;2023-04-01T00:04:32;9.60;99.90
10296;DHT22;5193;51.032;6.356;2023-04-01T00:06:58;9.60;99.90
10296;DHT22;5193;51.032;6.356;2023-04-01T00:09:24;9.60;99.90
10296;DHT22;5193;51.032;6.356;2023-04-01T00:11:50;9.60;99.90
10296;DHT22;5193;51.032;6.356;2023-04-01T00:14:15;9.60;99.90
10296;DHT22;5193;51.032;6.356;2023-04-01T00:16:41;9.60;99.90
10296;DHT22;5193;51.032;6.356;2023-04-01T00:19:06;9.60;99.90
10296;DHT22;5193;51.032;6.356;2023-04-01T00:21:33;9.60;99.90
10296;DHT22;5193;51.032;6.356;2023-04-01T00:23:58;9.60;99.90
10296;DHT22;5193;51.032;6.356;2023-04-01T00:26:24;9.60;99.90
10296;DHT22;5193;51.032;6.356;2023-04-01T00:28:50;9.50;99.90
10296;DHT22;5193;51.032;6.356;2023-04-01T00:31:16;9.50;99.90
10296;DHT22;5193;51.032;6.356;2023-04-01T00:33:43;9.50;99.90
10296;DHT22;5193;51.032;6.356;2023-04-01T00:36:13;9.50;99.90
10296;DHT22;5193;51.032;6.356;2023-04-01T00:38:39;9.50;99.90
10296;DHT22;5193;51.032;6.356;2023-04-01T00:41:07;9.50;99.90
10296;DHT22;5193;51.032;6.356;2023-04-01T00:43:32;9.50;99.90
10296;DHT22;5193;51.032;6.356;2023-04-01T00:45:58;9.50;99.90
10296;DHT22;5193;51.032;6.356;2023-04-01T00:48:27;9.50;99.90
10296;DHT22;5193;51.032;6.356;2023-04-01T00:51:17;9.50;99.90
10296;DHT22;5193;51.032;6.356;2023-04-01T00:53:47;9.50;99.90
10296;DHT22;5193;51.032;6.356;2023-04-01T00:56:17;9.50;99.90
10296;DHT22;5193;51.032;6.356;2023-04-01T00:58:47;9.50;99.90
10296;DHT22;5193;51.032;6.356;2023-04-01T01:01:13;9.50;99.90
10296;DHT22;5193;51.032;6.356;2023-04-01T01:03:39;9.50;99.90
10296;DHT22;5193;51.032;6.356;2023-04-01T01:06:39;9.50;99.90
10296;DHT22;5193;51.032;6.356;2023-04-01T01:16:58;9.50;99.90
10296;DHT22;5193;51.032;6.356;2023-04-01T01:28:33;9.50;99.90
10296;DHT22;5193;51.032;6.356;2023-04-01T01:34:30;9.50;99.90
10296;DHT22;5193;51.032;6.356;2023-04-01T01:37:05;9.50;99.90
10296;DHT22;5193;51.032;6.356;2023-04-01T01:39:34;9.50;99.90
10296;DHT22;5193;51.032;6.356;2023-04-01T01:42:04;9.40;99.90
10296;DHT22;5193;51.032;6.356;2023-04-01T01:44:32;9.40;99.90
10296;DHT22;5193;51.032;6.356;2023-04-01T01:46:59;9.40;99.90
10296;DHT22;5193;51.032;6.356;2023-04-01T01:49:27;9.40;99.90
10296;DHT22;5193;51.032;6.356;2023-04-01T01:51:52;9.40;99.90
10296;DHT22;5193;51.032;6.356;2023-04-01T01:54:18;9.40;99.90
10296;DHT22;5193;51.032;6.356;2023-04-01T01:56:46;9.40;99.90
10296;DHT22;5193;51.032;6.356;2023-04-01T01:59:15;9.30;99.90
10296;DHT22;5193;51.032;6.356;2023-04-01T02:01:52;9.40;99.90
10296;DHT22;5193;51.032;6.356;2023-04-01T02:04:19;9.40;99.90
10296;DHT22;5193;51.032;6.356;2023-04-01T02:06:58;9.40;99.90
10296;DHT22;5193;51.032;6.356;2023-04-01T02:09:25;9.40;99.90
10296;DHT22;5193;51.032;6.356;2023-04-01T02:11:59;9.40;99.90
10296;DHT22;5193;51.032;6.356;2023-04-01T02:14:28;9.40;99.90
10296;DHT22;5193;51.032;6.356;2023-04-01T02:17:06;9.40;99.90
10296;DHT22;5193;51.032;6.356;2023-04-01T02:19:46;9.40;99.90
10296;DHT22;5193;51.032;6.356;2023-04-01T02:22:16;9.40;99.90
10296;DHT22;5193;51.032;6.356;2023-04-01T02:24:43;9.40;99.90
10296;DHT22;5193;51.032;6.356;2023-04-01T02:27:11;9.50;99.90
10296;DHT22;5193;51.032;6.356;2023-04-01T02:29:37;9.50;99.90
10296;DHT22;5193;51.032;6.356;2023-04-01T02:32:03;9.50;99.90
10296;DHT22;5193;51.032;6.356;2023-04-01T02:34:29;9.50;99.90
10296;DHT22;5193;51.032;6.356;2023-04-01T02:36:55;9.40;99.90
10296;DHT22;5193;51.032;6.356;2023-04-01T02:39:22;9.40;99.90
10296;DHT22;5193;51.032;6.356;2023-04-01T02:41:48;9.40;99.90
10296;DHT22;5193;51.032;6.356;2023-04-01T02:44:15;9.40;99.90
10296;DHT22;5193;51.032;6.356;2023-04-01T02:46:41;9.40;99.90
10296;DHT22;5193;51.032;6.356;2023-04-01T02:49:07;9.40;99.90
10296;DHT22;5193;51.032;6.356;2023-04-01T02:51:33;9.40;99.90
10296;DHT22;5193;51.032;6.356;2023-04-01T02:53:59;9.40;99.90
10296;DHT22;5193;51.032;6.356;2023-04-01T02:56:25;9.30;99.90
10296;DHT22;5193;51.032;6.356;2023-04-01T02:58:51;9.30;99.90
10296;DHT22;5193;51.032;6.356;2023-04-01T03:01:17;9.30;99.90
10296;DHT22;5193;51.032;6.356;2023-04-01T03:03:42;9.30;99.90
10296;DHT22;5193;51.032;6.356;2023-04-01T03:06:10;9.30;99.90
10296;DHT22;5193;51.032;6.356;2023-04-01T03:08:36;9.30;99.90
10296;DHT22;5193;51.032;6.356;2023-04-01T03:11:02;9.30;99.90
10296;DHT22;5193;51.032;6.356;2023-04-01T03:15:55;9.30;99.90
10296;DHT22;5193;51.032;6.356;2023-04-01T03:18:21;9.30;99.90
10296;DHT22;5193;51.032;6.356;2023-04-01T03:20:46;9.30;99.90
10296;DHT22;5193;51.032;6.356;2023-04-01T03:23:12;9.30;99.90
10296;DHT22;5193;51.032;6.356;2023-04-01T03:25:38;9.30;99.90
10296;DHT22;5193;51.032;6.356;2023-04-01T03:28:03;9.30;99.90
10296;DHT22;5193;51.032;6.356;2023-04-01T03:30:29;9.30;99.90
10296;DHT22;5193;51.032;6.356;2023-04-01T03:32:59;9.30;99.90
10296;DHT22;5193;51.032;6.356;2023-04-01T03:35:26;9.30;99.90
10296;DHT22;5193;51.032;6.356;2023-04-01T03:37:52;9.30;99.90
10296;DHT22;5193;51.032;6.356;2023-04-01T03:40:18;9.30;99.90
10296;DHT22;5193;51.032;6.356;2023-04-01T03:42:44;9.30;99.90
10296;DHT22;5193;51.032;6.356;2023-04-01T03:45:10;9.30;99.90
10296;DHT22;5193;51.032;6.356;2023-04-01T03:47:37;9.30;99.90
10296;DHT22;5193;51.032;6.356;2023-04-01T03:50:04;9.30;99.90
10296;DHT22;5193;51.032;6.356;2023-04-01T03:52:29;9.30;99.90
10296;DHT22;5193;51.032;6.356;2023-04-01T03:54:55;9.30;99.90
10296;DHT22;5193;51.032;6.356;2023-04-01T03:57:21;9.30;99.90
10296;DHT22;5193;51.032;6.356;2023-04-01T03:59:47;9.30;99.90
10296;DHT22;5193;51.032;6.356;2023-04-01T04:02:12;9.30;99.90
10296;DHT22;5193;51.032;6.356;2023-04-01T04:04:38;9.30;99.90
10296;DHT22;5193;51.032;6.356;2023-04-01T04:07:03;9.30;99.90
10296;DHT22;5193;51.032;6.356;2023-04-01T04:09:44;9.30;99.90
10296;DHT22;5193;51.032;6.356;2023-04-01T04:12:10;9.30;99.90
10296;DHT22;5193;51.032;6.356;2023-04-01T04:14:35;9.30;99.90
10296;DHT22;5193;51.032;6.356;2023-04-01T04:17:01;9.30;99.90
10296;DHT22;5193;51.032;6.356;2023-04-01T04:19:30;9.30;99.90
10296;DHT22;5193;51.032;6.356;2023-04-01T04:21:56;9.30;99.90
10296;DHT22;5193;51.032;6.356;2023-04-01T04:24:22;9.30;99.90
10296;DHT22;5193;51.032;6.356;2023-04-01T04:26:47;9.30;99.90
10296;DHT22;5193;51.032;6.356;2023-04-01T04:29:13;9.30;99.90
10296;DHT22;5193;51.032;6.356;2023-04-01T04:31:38;9.30;99.90
10296;DHT22;5193;51.032;6.356;2023-04-01T04:34:04;9.30;99.90
10296;DHT22;5193;51.032;6.356;2023-04-01T04:36:29;9.30;99.90
10296;DHT22;5193;51.032;6.356;2023-04-01T04:38:55;9.30;99.90
10296;DHT22;5193;51.032;6.356;2023-04-01T04:41:20;9.30;99.90
10296;DHT22;5193;51.032;6.356;2023-04-01T04:43:52;9.30;99.90
10296;DHT22;5193;51.032;6.356;2023-04-01T04:46:19;9.30;99.90
10296;DHT22;5193;51.032;6.356;2023-04-01T04:48:45;9.30;99.90
10296;DHT22;5193;51.032;6.356;2023-04-01T04:51:18;9.30;99.90
10296;DHT22;5193;51.032;6.356;2023-04-01T04:53:44;9.30;99.90
10296;DHT22;5193;51.032;6.356;2023-04-01T04:56:10;9.20;99.90
10296;DHT22;5193;51.032;6.356;2023-04-01T04:58:37;9.20;99.90
10296;DHT22;5193;51.032;6.356;2023-04-01T05:01:11;9.20;99.90
10296;DHT22;5193;51.032;6.356;2023-04-01T05:03:37;9.20;99.90
10296;DHT22;5193;51.032;6.356;2023-04-01T05:06:04;9.20;99.90
10296;DHT22;5193;51.032;6.356;2023-04-01T05:08:30;9.20;99.90
10296;DHT22;5193;51.032;6.356;2023-04-01T05:10:58;9.20;99.90
10296;DHT22;5193;51.032;6.356;2023-04-01T05:13:23;9.20;99.90
10296;DHT22;5193;51.032;6.356;2023-04-01T05:15:49;9.20;99.90
10296;DHT22;5193;51.032;6.356;2023-04-01T05:18:15;9.20;99.90
10296;DHT22;5193;51.032;6.356;2023-04-01T05:20:53;9.20;99.90
10296;DHT22;5193;51.032;6.356;2023-04-01T05:23:19;9.20;99.90
10296;DHT22;5193;51.032;6.356;2023-04-01T05:25:47;9.30;99.90
10296;DHT22;5193;51.032;6.356;2023-04-01T05:28:13;9.20;99.90
10296;DHT22;5193;51.032;6.356;2023-04-01T05:30:43;9.20;99.90
10296;DHT22;5193;51.032;6.356;2023-04-01T05:33:10;9.20;99.90
10296;DHT22;5193;51.032;6.356;2023-04-01T05:35:36;9.20;99.90
10296;DHT22;5193;51.032;6.356;2023-04-01T05:38:01;9.30;99.90
10296;DHT22;5193;51.032;6.356;2023-04-01T05:40:28;9.20;99.90
10296;DHT22;5193;51.032;6.356;2023-04-01T05:42:53;9.30;99.90
10296;DHT22;5193;51.032;6.356;2023-04-01T05:45:19;9.20;99.90
10296;DHT22;5193;51.032;6.356;2023-04-01T05:47:45;9.20;99.90
10296;DHT22;5193;51.032;6.356;2023-04-01T05:50:11;9.20;99.90
10296;DHT22;5193;51.032;6.356;2023-04-01T05:52:37;9.30;99.90
10296;DHT22;5193;51.032;6.356;2023-04-01T05:55:03;9.20;99.90
10296;DHT22;5193;51.032;6.356;2023-04-01T05:57:30;9.30;99.90
10296;DHT22;5193;51.032;6.356;2023-04-01T05:59:55;9.30;99.90
10296;DHT22;5193;51.032;6.356;2023-04-01T06:02:21;9.30;99.90
10296;DHT22;5193;51.032;6.356;2023-04-01T06:04:47;9.30;99.90
10296;DHT22;5193;51.032;6.356;2023-04-01T06:07:17;9.30;99.90
10296;DHT22;5193;51.032;6.356;2023-04-01T06:09:44;9.30;99.90
10296;DHT22;5193;51.032;6.356;2023-04-01T06:15:32;9.30;99.90
10296;DHT22;5193;51.032;6.356;2023-04-01T06:21:09;9.30;99.90
10296;DHT22;5193;51.032;6.356;2023-04-01T06:43:16;9.30;99.90
10296;DHT22;5193;51.032;6.356;2023-04-01T06:46:05;9.30;99.90
10296;DHT22;5193;51.032;6.356;2023-04-01T06:49:02;9.30;99.90
10296;DHT22;5193;51.032;6.356;2023-04-01T06:54:34;9.40;99.90
10296;DHT22;5193;51.032;6.356;2023-04-01T06:57:21;9.30;99.90
10296;DHT22;5193;51.032;6.356;2023-04-01T06:59:49;9.40;99.90
10296;DHT22;5193;51.032;6.356;2023-04-01T07:02:28;9.40;99.90
10296;DHT22;5193;51.032;6.356;2023-04-01T07:04:58;9.40;99.90
10296;DHT22;5193;51.032;6.356;2023-04-01T07:09:58;9.40;99.90
10296;DHT22;5193;51.032;6.356;2023-04-01T07:15:01;9.40;99.90
10296;DHT22;5193;51.032;6.356;2023-04-01T07:17:32;9.40;99.90
10296;DHT22;5193;51.032;6.356;2023-04-01T07:20:29;9.40;99.90
10296;DHT22;5193;51.032;6.356;2023-04-01T07:23:00;9.40;99.90
10296;DHT22;5193;51.032;6.356;2023-04-01T07:25:34;9.40;99.90
10296;DHT22;5193;51.032;6.356;2023-04-01T07:28:03;9.40;99.90
10296;DHT22;5193;51.032;6.356;2023-04-01T07:30:40;9.40;99.90
10296;DHT22;5193;51.032;6.356;2023-04-01T07:33:19;9.40;99.90
10296;DHT22;5193;51.032;6.356;2023-04-01T07:36:03;9.30;99.90
10296;DHT22;5193;51.032;6.356;2023-04-01T07:41:45;9.40;99.90
10296;DHT22;5193;51.032;6.356;2023-04-01T07:44:35;9.40;99.90
10296;DHT22;5193;51.032;6.356;2023-04-01T07:50:22;9.40;99.90
10296;DHT22;5193;51.032;6.356;2023-04-01T07:55:36;9.40;99.90
10296;DHT22;5193;51.032;6.356;2023-04-01T07:58:19;9.40;99.90
10296;DHT22;5193;51.032;6.356;2023-04-01T08:06:43;9.50;99.90
10296;DHT22;5193;51.032;6.356;2023-04-01T08:14:50;9.60;99.90
10296;DHT22;5193;51.032;6.356;2023-04-01T08:20:25;9.60;99.90
10296;DHT22;5193;51.032;6.356;2023-04-01T08:23:16;9.60;99.90
10296;DHT22;5193;51.032;6.356;2023-04-01T08:25:49;9.60;99.90
10296;DHT22;5193;51.032;6.356;2023-04-01T08:28:29;9.60;99.90
10296;DHT22;5193;51.032;6.356;2023-04-01T08:31:11;9.60;99.90
10296;DHT22;5193;51.032;6.356;2023-04-01T08:33:39;9.70;99.90
10296;DHT22;5193;51.032;6.356;2023-04-01T08:38:57;9.60;99.90
10296;DHT22;5193;51.032;6.356;2023-04-01T08:55:44;9.70;99.90
10296;DHT22;5193;51.032;6.356;2023-04-01T09:06:39;9.90;99.90
10296;DHT22;5193;51.032;6.356;2023-04-01T09:18:01;10.00;99.90
10296;DHT22;5193;51.032;6.356;2023-04-01T09:26:22;10.00;99.90
10296;DHT22;5193;51.032;6.356;2023-04-01T09:40:17;9.90;99.90
10296;DHT22;5193;51.032;6.356;2023-04-01T09:43:00;9.90;99.90
10296;DHT22;5193;51.032;6.356;2023-04-01T09:46:08;10.00;99.90
10296;DHT22;5193;51.032;6.356;2023-04-01T09:49:05;10.00;99.90
10296;DHT22;5193;51.032;6.356;2023-04-01T09:51:52;10.00;99.90
10296;DHT22;5193;51.032;6.356;2023-04-01T09:57:24;10.10;99.90
10296;DHT22;5193;51.032;6.356;2023-04-01T10:00:15;10.10;99.90
10296;DHT22;5193;51.032;6.356;2023-04-01T10:03:08;10.10;99.90
10296;DHT22;5193;51.032;6.356;2023-04-01T10:09:22;10.10;99.90
10296;DHT22;5193;51.032;6.356;2023-04-01T10:12:00;10.10;99.90
10296;DHT22;5193;51.032;6.356;2023-04-01T10:28:31;10.10;99.90
10296;DHT22;5193;51.032;6.356;2023-04-01T10:34:12;10.10;99.90
10296;DHT22;5193;51.032;6.356;2023-04-01T10:53:19;10.10;99.90
10296;DHT22;5193;51.032;6.356;2023-04-01T11:10:32;10.30;99.90
10296;DHT22;5193;51.032;6.356;2023-04-01T11:19:02;10.30;99.90
10296;DHT22;5193;51.032;6.356;2023-04-01T11:25:00;10.40;99.90
10296;DHT22;5193;51.032;6.356;2023-04-01T11:27:55;10.40;99.90
10296;DHT22;5193;51.032;6.356;2023-04-01T11:31:03;10.40;99.90
10296;DHT22;5193;51.032;6.356;2023-04-01T11:33:38;10.40;99.90
10296;DHT22;5193;51.032;6.356;2023-04-01T11:42:34;10.70;99.90
10296;DHT22;5193;51.032;6.356;2023-04-01T11:47:52;10.90;99.90
10296;DHT22;5193;51.032;6.356;2023-04-01T11:58:31;10.90;99.90
10296;DHT22;5193;51.032;6.356;2023-04-01T12:09:48;11.00;99.90
10296;DHT22;5193;51.032;6.356;2023-04-01T12:12:51;11.00;99.90
10296;DHT22;5193;51.032;6.356;2023-04-01T12:18:46;11.00;99.90
10296;DHT22;5193;51.032;6.356;2023-04-01T12:30:01;11.20;99.90
10296;DHT22;5193;51.032;6.356;2023-04-01T12:32:40;11.20;99.90
10296;DHT22;5193;51.032;6.356;2023-04-01T12:35:15;11.30;99.90
10296;DHT22;5193;51.032;6.356;2023-04-01T12:43:27;11.60;99.90
10296;DHT22;5193;51.032;6.356;2023-04-01T12:46:07;11.50;99.90
10296;DHT22;5193;51.032;6.356;2023-04-01T12:54:32;11.50;99.90
10296;DHT22;5193;51.032;6.356;2023-04-01T13:05:09;11.60;99.90
10296;DHT22;5193;51.032;6.356;2023-04-01T13:07:49;11.70;99.90
10296;DHT22;5193;51.032;6.356;2023-04-01T13:10:38;11.80;99.90
10296;DHT22;5193;51.032;6.356;2023-04-01T13:15:52;11.70;99.90
10296;DHT22;5193;51.032;6.356;2023-04-01T13:21:22;11.60;99.90
10296;DHT22;5193;51.032;6.356;2023-04-01T13:26:46;11.50;99.90
10296;DHT22;5193;51.032;6.356;2023-04-01T13:29:35;11.40;99.90
10296;DHT22;5193;51.032;6.356;2023-04-01T13:40:37;11.30;99.90
10296;DHT22;5193;51.032;6.356;2023-04-01T13:43:12;11.30;99.90
10296;DHT22;5193;51.032;6.356;2023-04-01T14:02:50;11.00;99.90
10296;DHT22;5193;51.032;6.356;2023-04-01T14:05:51;11.00;99.90
10296;DHT22;5193;51.032;6.356;2023-04-01T14:16:51;11.00;99.90
10296;DHT22;5193;51.032;6.356;2023-04-01T14:22:52;11.00;99.90
10296;DHT22;5193;51.032;6.356;2023-04-01T14:28:12;10.90;99.90
10296;DHT22;5193;51.032;6.356;2023-04-01T14:50:30;11.00;99.90
10296;DHT22;5193;51.032;6.356;2023-04-01T14:53:30;11.00;99.90
10296;DHT22;5193;51.032;6.356;2023-04-01T14:55:58;11.00;99.90
10296;DHT22;5193;51.032;6.356;2023-04-01T14:58:39;11.00;99.90
10296;DHT22;5193;51.032;6.356;2023-04-01T15:03:48;10.90;99.90
10296;DHT22;5193;51.032;6.356;2023-04-01T15:12:26;11.00;99.90
10296;DHT22;5193;51.032;6.356;2023-04-01T15:17:48;10.90;99.90
10296;DHT22;5193;51.032;6.356;2023-04-01T15:20:40;10.90;99.90
10296;DHT22;5193;51.032;6.356;2023-04-01T15:23:20;10.80;99.90
10296;DHT22;5193;51.032;6.356;2023-04-01T15:28:45;10.70;99.90
10296;DHT22;5193;51.032;6.356;2023-04-01T15:31:45;10.70;99.90
10296;DHT22;5193;51.032;6.356;2023-04-01T15:37:01;10.70;99.90
10296;DHT22;5193;51.032;6.356;2023-04-01T15:45:06;10.70;99.90
10296;DHT22;5193;51.032;6.356;2023-04-01T15:47:58;10.70;99.90
10296;DHT22;5193;51.032;6.356;2023-04-01T15:50:27;10.70;99.90
10296;DHT22;5193;51.032;6.356;2023-04-01T15:53:07;10.70;99.90
10296;DHT22;5193;51.032;6.356;2023-04-01T15:55:45;10.70;99.90
10296;DHT22;5193;51.032;6.356;2023-04-01T16:04:17;10.60;99.90
10296;DHT22;5193;51.032;6.356;2023-04-01T16:09:39;10.50;99.90
10296;DHT22;5193;51.032;6.356;2023-04-01T16:12:23;10.50;99.90
10296;DHT22;5193;51.032;6.356;2023-04-01T16:20:35;10.40;99.90
10296;DHT22;5193;51.032;6.356;2023-04-01T16:25:49;10.40;99.90
10296;DHT22;5193;51.032;6.356;2023-04-01T16:36:30;10.30;99.90
10296;DHT22;5193;51.032;6.356;2023-04-01T16:39:30;10.30;99.90
10296;DHT22;5193;51.032;6.356;2023-04-01T16:47:56;10.20;99.90
10296;DHT22;5193;51.032;6.356;2023-04-01T16:50:44;10.10;99.90
10296;DHT22;5193;51.032;6.356;2023-04-01T16:58:33;10.10;99.90
10296;DHT22;5193;51.032;6.356;2023-04-01T17:01:20;10.00;99.90
10296;DHT22;5193;51.032;6.356;2023-04-01T17:03:52;10.00;99.90
10296;DHT22;5193;51.032;6.356;2023-04-01T17:09:01;10.00;99.90
10296;DHT22;5193;51.032;6.356;2023-04-01T17:12:24;10.00;99.90
10296;DHT22;5193;51.032;6.356;2023-04-01T17:14:49;10.00;99.90
10296;DHT22;5193;51.032;6.356;2023-04-01T17:20:27;9.90;99.90
10296;DHT22;5193;51.032;6.356;2023-04-01T17:22:56;9.90;99.90
10296;DHT22;5193;51.032;6.356;2023-04-01T17:33:55;9.80;99.90
10296;DHT22;5193;51.032;6.356;2023-04-01T17:41:53;9.70;99.90
10296;DHT22;5193;51.032;6.356;2023-04-01T17:47:21;9.70;99.90
10296;DHT22;5193;51.032;6.356;2023-04-01T17:50:09;9.70;99.90
10296;DHT22;5193;51.032;6.356;2023-04-01T17:55:31;9.60;99.90
10296;DHT22;5193;51.032;6.356;2023-04-01T18:00:51;9.60;99.90
10296;DHT22;5193;51.032;6.356;2023-04-01T18:09:14;9.60;99.90
10296;DHT22;5193;51.032;6.356;2023-04-01T18:23:19;9.50;99.90
10296;DHT22;5193;51.032;6.356;2023-04-01T18:25:48;9.50;99.90
10296;DHT22;5193;51.032;6.356;2023-04-01T18:31:11;9.50;99.90
10296;DHT22;5193;51.032;6.356;2023-04-01T18:33:50;9.40;99.90
10296;DHT22;5193;51.032;6.356;2023-04-01T18:36:38;9.40;99.90
10296;DHT22;5193;51.032;6.356;2023-04-01T18:39:40;9.40;99.90
10296;DHT22;5193;51.032;6.356;2023-04-01T18:42:19;9.40;99.90
10296;DHT22;5193;51.032;6.356;2023-04-01T18:44:53;9.40;99.90
10296;DHT22;5193;51.032;6.356;2023-04-01T18:47:36;9.40;99.90
10296;DHT22;5193;51.032;6.356;2023-04-01T18:50:24;9.30;99.90
10296;DHT22;5193;51.032;6.356;2023-04-01T18:52:58;9.40;99.90
10296;DHT22;5193;51.032;6.356;2023-04-01T18:55:29;9.40;99.90
10296;DHT22;5193;51.032;6.356;2023-04-01T18:58:11;9.30;99.90
10296;DHT22;5193;51.032;6.356;2023-04-01T19:01:05;9.30;99.90
10296;DHT22;5193;51.032;6.356;2023-04-01T19:06:43;9.30;99.90
10296;DHT22;5193;51.032;6.356;2023-04-01T19:12:41;9.30;99.90
10296;DHT22;5193;51.032;6.356;2023-04-01T19:20:51;9.30;99.90
10296;DHT22;5193;51.032;6.356;2023-04-01T19:32:08;9.20;99.90
10296;DHT22;5193;51.032;6.356;2023-04-01T19:35:14;9.20;99.90
10296;DHT22;5193;51.032;6.356;2023-04-01T19:37:54;9.20;99.90
10296;DHT22;5193;51.032;6.356;2023-04-01T19:52:14;9.10;99.90
10296;DHT22;5193;51.032;6.356;2023-04-01T19:55:03;9.10;99.90
10296;DHT22;5193;51.032;6.356;2023-04-01T19:58:13;9.20;99.90
10296;DHT22;5193;51.032;6.356;2023-04-01T20:00:50;9.10;99.90
10296;DHT22;5193;51.032;6.356;2023-04-01T20:12:24;9.10;99.90
10296;DHT22;5193;51.032;6.356;2023-04-01T20:14:51;9.10;99.90
10296;DHT22;5193;51.032;6.356;2023-04-01T20:17:24;9.10;99.90
10296;DHT22;5193;51.032;6.356;2023-04-01T20:23:01;9.10;99.90
10296;DHT22;5193;51.032;6.356;2023-04-01T20:25:33;9.10;99.90
10296;DHT22;5193;51.032;6.356;2023-04-01T20:28:21;9.10;99.90
10296;DHT22;5193;51.032;6.356;2023-04-01T20:36:30;9.10;99.90
10296;DHT22;5193;51.032;6.356;2023-04-01T20:42:13;9.00;99.90
10296;DHT22;5193;51.032;6.356;2023-04-01T20:53:16;9.10;99.90
10296;DHT22;5193;51.032;6.356;2023-04-01T20:58:54;9.00;99.90
10296;DHT22;5193;51.032;6.356;2023-04-01T21:01:47;9.10;99.90
10296;DHT22;5193;51.032;6.356;2023-04-01T21:07:15;9.10;99.90
10296;DHT22;5193;51.032;6.356;2023-04-01T21:09:49;9.10;99.90
10296;DHT22;5193;51.032;6.356;2023-04-01T21:28:48;9.20;99.90
10296;DHT22;5193;51.032;6.356;2023-04-01T21:37:31;9.20;99.90
10296;DHT22;5193;51.032;6.356;2023-04-01T21:45:50;9.20;99.90
10296;DHT22;5193;51.032;6.356;2023-04-01T22:00:20;9.10;99.90
10296;DHT22;5193;51.032;6.356;2023-04-01T22:16:28;8.80;99.90
10296;DHT22;5193;51.032;6.356;2023-04-01T22:24:54;8.70;99.90
10296;DHT22;5193;51.032;6.356;2023-04-01T22:30:25;8.70;99.90
10296;DHT22;5193;51.032;6.356;2023-04-01T22:36:02;8.60;99.90
10296;DHT22;5193;51.032;6.356;2023-04-01T22:43:57;8.60;99.90
10296;DHT22;5193;51.032;6.356;2023-04-01T22:56:46;8.50;99.90
10296;DHT22;5193;51.032;6.356;2023-04-01T22:59:22;8.40;99.90
10296;DHT22;5193;51.032;6.356;2023-04-01T23:02:03;8.40;99.90
10296;DHT22;5193;51.032;6.356;2023-04-01T23:04:34;8.40;99.90
10296;DHT22;5193;51.032;6.356;2023-04-01T23:07:06;8.30;99.90
10296;DHT22;5193;51.032;6.356;2023-04-01T23:09:42;8.30;99.90
10296;DHT22;5193;51.032;6.356;2023-04-01T23:12:12;8.30;99.90
10296;DHT22;5193;51.032;6.356;2023-04-01T23:14:56;8.30;99.90
10296;DHT22;5193;51.032;6.356;2023-04-01T23:20:32;8.20;99.90
10296;DHT22;5193;51.032;6.356;2023-04-01T23:28:46;8.10;99.90
10296;DHT22;5193;51.032;6.356;2023-04-01T23:31:32;8.00;99.90
10296;DHT22;5193;51.032;6.356;2023-04-01T23:34:21;8.00;99.90
10296;DHT22;5193;51.032;6.356;2023-04-01T23:36:49;8.00;99.90
10296;DHT22;5193;51.032;6.356;2023-04-01T23:42:12;7.90;99.90
10296;DHT22;5193;51.032;6.356;2023-04-01T23:44:39;7.90;99.90
10296;DHT22;5193;51.032;6.356;2023-04-01T23:47:06;7.90;99.90
10296;DHT22;5193;51.032;6.356;2023-04-01T23:49:38;7.90;99.90
10296;DHT22;5193;51.032;6.356;2023-04-01T23:52:26;7.90;99.90
10296;DHT22;5193;51.032;6.356;2023-04-01T23:54:57;7.80;99.90
10296;DHT22;5193;51.032;6.356;2023-04-01T23:57:30;7.80;99.90
